Fieldton, Texas
Current Conditions -  °F | °C
As of 10:35 AM on Sunday 21 Dec 2014 (Local Time) from KPVW Reporting Station
Clear Clear  
Wind Chill: 43°   Ceiling: Unl
Heat Index: 48°   Visibility: 10mi
Dew Point: 34°   Wind: 13mph
Humidity: 59%   Direction: 260°W
Pressure: 29.82"   Gusts: NA
Location:  34.04°N, 102.22°W
Report Text: KPVW 211635Z AUTO 26011KT 10SM CLR 09/01 A2982 RMK AO2 T00890012
Loading
Personal Weather Stations






























Interactive Weather Map New forecast layout! Learn more

10-Day Weather Forecast

Advertisements
Track Severe Weather on mobile